createdAt,value
2018-07-09T00:00:50.856Z,0.00
2018-07-09T00:01:50.847Z,0.00
2018-07-09T00:02:50.853Z,0.00
2018-07-09T00:03:50.798Z,0.00
2018-07-09T00:04:50.816Z,0.00
2018-07-09T00:05:50.772Z,0.00
2018-07-09T00:06:50.757Z,0.00
2018-07-09T00:07:50.763Z,0.00
2018-07-09T00:08:50.719Z,0.00
2018-07-09T00:09:50.745Z,0.00
2018-07-09T00:10:50.717Z,0.00
2018-07-09T00:11:50.684Z,0.00
2018-07-09T00:12:50.653Z,0.00
2018-07-09T00:13:50.666Z,0.00
2018-07-09T00:14:50.617Z,0.00
2018-07-09T00:15:50.623Z,0.00
2018-07-09T00:16:50.590Z,0.00
2018-07-09T00:17:50.592Z,0.00
2018-07-09T00:18:50.579Z,0.00
2018-07-09T00:19:50.543Z,0.00
2018-07-09T00:20:50.519Z,0.00
2018-07-09T00:21:50.511Z,0.00
2018-07-09T00:22:50.522Z,0.00
2018-07-09T00:23:50.515Z,0.00
2018-07-09T00:24:50.497Z,0.00
2018-07-09T00:25:50.436Z,0.00
2018-07-09T00:26:50.423Z,0.00
2018-07-09T00:27:50.397Z,0.00
2018-07-09T00:28:50.411Z,0.00
2018-07-09T00:29:50.400Z,0.00
2018-07-09T00:30:50.390Z,0.00
2018-07-09T00:31:50.331Z,0.00
2018-07-09T00:32:50.365Z,0.00
2018-07-09T00:33:50.331Z,0.00
2018-07-09T00:34:50.311Z,0.00
2018-07-09T00:35:50.284Z,0.00
2018-07-09T00:36:50.273Z,0.00
2018-07-09T00:37:50.232Z,0.00
2018-07-09T00:38:50.273Z,0.00
2018-07-09T00:39:50.227Z,0.00
2018-07-09T00:40:50.222Z,0.00
2018-07-09T00:41:50.182Z,0.00
2018-07-09T00:42:50.144Z,0.00
2018-07-09T00:43:50.153Z,0.00
2018-07-09T00:44:50.130Z,0.00
2018-07-09T00:45:50.094Z,0.00
2018-07-09T00:46:50.097Z,0.00
2018-07-09T00:47:50.167Z,0.00
2018-07-09T00:48:50.046Z,0.00
2018-07-09T00:49:50.029Z,0.00
2018-07-09T00:50:50.028Z,0.00
2018-07-09T00:51:50.005Z,0.00
2018-07-09T00:52:49.975Z,0.00
2018-07-09T00:53:49.961Z,0.00
2018-07-09T00:54:50.005Z,0.00
2018-07-09T00:55:49.970Z,0.00
2018-07-09T00:56:49.932Z,0.00
2018-07-09T00:57:49.919Z,0.00
2018-07-09T00:58:49.896Z,0.00
2018-07-09T00:59:49.877Z,0.00
2018-07-09T01:00:49.844Z,0.00
2018-07-09T01:01:49.831Z,0.00
2018-07-09T01:02:49.811Z,0.00
2018-07-09T01:03:49.809Z,0.00
2018-07-09T01:04:49.797Z,0.00
2018-07-09T01:05:49.809Z,0.00
2018-07-09T01:06:49.755Z,0.00
2018-07-09T01:07:49.720Z,0.00
2018-07-09T01:08:49.739Z,0.00
2018-07-09T01:09:49.690Z,0.00
2018-07-09T01:10:49.686Z,0.00
2018-07-09T01:11:49.679Z,0.00
2018-07-09T01:12:49.645Z,0.00
2018-07-09T01:13:49.614Z,0.00
2018-07-09T01:14:49.621Z,0.00
2018-07-09T01:15:49.582Z,0.00
2018-07-09T01:16:49.646Z,0.00
2018-07-09T01:17:49.570Z,0.00
2018-07-09T01:18:49.568Z,0.00
2018-07-09T01:19:49.533Z,0.00
2018-07-09T01:20:49.491Z,0.00
2018-07-09T01:21:49.492Z,0.00
2018-07-09T01:22:49.469Z,0.00
2018-07-09T01:23:49.468Z,0.00
2018-07-09T01:24:49.453Z,0.00
2018-07-09T01:25:49.435Z,0.00
2018-07-09T01:26:49.404Z,0.00
2018-07-09T01:27:49.373Z,0.00
2018-07-09T01:28:49.381Z,0.00
2018-07-09T01:29:49.375Z,0.00
2018-07-09T01:30:49.386Z,0.00
2018-07-09T01:31:49.326Z,0.00
2018-07-09T01:32:49.320Z,0.00
2018-07-09T01:33:49.337Z,0.00
2018-07-09T01:34:49.256Z,0.00
2018-07-09T01:35:49.240Z,0.00
2018-07-09T01:36:49.222Z,0.00
2018-07-09T01:37:49.230Z,0.00
2018-07-09T01:39:03.758Z,0.00
2018-07-09T01:39:49.204Z,0.00
2018-07-09T01:40:49.172Z,0.00
2018-07-09T01:41:49.158Z,0.00
2018-07-09T01:42:49.140Z,0.00
2018-07-09T01:43:49.101Z,0.00
2018-07-09T01:44:49.103Z,0.00
2018-07-09T01:45:49.162Z,0.00
2018-07-09T01:46:49.046Z,0.00
2018-07-09T01:47:49.033Z,0.00
2018-07-09T01:48:49.096Z,0.00
2018-07-09T01:49:49.016Z,0.00
2018-07-09T01:50:49.004Z,0.00
2018-07-09T01:51:48.988Z,0.00
2018-07-09T01:52:48.963Z,0.00
2018-07-09T01:53:48.928Z,0.00
2018-07-09T01:54:48.921Z,0.00
2018-07-09T01:55:48.893Z,0.00
2018-07-09T01:56:48.919Z,0.00
2018-07-09T01:57:48.865Z,0.00
2018-07-09T01:58:48.839Z,0.00
2018-07-09T01:59:48.823Z,0.00
2018-07-09T02:00:48.811Z,0.00
2018-07-09T02:01:48.815Z,0.00
2018-07-09T02:02:48.764Z,0.00
2018-07-09T02:03:48.751Z,0.00
2018-07-09T02:04:48.750Z,0.00
2018-07-09T02:05:48.718Z,0.00
2018-07-09T02:06:48.777Z,0.00
2018-07-09T02:07:48.692Z,0.00
2018-07-09T02:08:48.658Z,0.00
2018-07-09T02:09:48.642Z,0.00
2018-07-09T02:10:48.650Z,0.00
2018-07-09T02:11:48.612Z,0.00
2018-07-09T02:12:48.622Z,0.00
2018-07-09T02:13:48.587Z,0.00
2018-07-09T02:14:48.613Z,0.00
2018-07-09T02:15:48.549Z,0.00
2018-07-09T02:16:48.519Z,0.00
2018-07-09T02:17:48.523Z,0.00
2018-07-09T02:18:48.492Z,0.00
2018-07-09T02:19:48.475Z,0.00
2018-07-09T02:20:48.449Z,0.00
2018-07-09T02:21:48.453Z,0.00
2018-07-09T02:22:48.420Z,0.00
2018-07-09T02:23:48.411Z,0.00
2018-07-09T02:24:48.379Z,0.00
2018-07-09T02:25:48.385Z,0.00
2018-07-09T02:26:48.346Z,0.00
2018-07-09T02:27:48.338Z,0.00
2018-07-09T02:28:48.367Z,0.00
2018-07-09T02:29:48.296Z,0.00
2018-07-09T02:30:48.295Z,0.00
2018-07-09T02:31:48.283Z,0.00
2018-07-09T02:32:48.317Z,0.00
2018-07-09T02:33:48.240Z,0.00
2018-07-09T02:34:48.234Z,0.00
2018-07-09T02:35:48.208Z,0.00
2018-07-09T02:36:48.166Z,0.00
2018-07-09T02:37:48.153Z,0.00
2018-07-09T02:38:48.142Z,0.00
2018-07-09T02:39:48.152Z,0.00
2018-07-09T02:40:48.139Z,0.00
2018-07-09T02:41:48.076Z,0.00
2018-07-09T02:42:48.073Z,0.00
2018-07-09T02:43:48.053Z,0.00
2018-07-09T02:44:48.025Z,0.00
2018-07-09T02:45:48.008Z,0.00
2018-07-09T02:46:47.986Z,0.00
2018-07-09T02:47:47.985Z,0.00
2018-07-09T02:48:47.963Z,0.00
2018-07-09T02:49:47.944Z,0.00
2018-07-09T02:50:47.912Z,0.00
2018-07-09T02:51:47.928Z,0.00
2018-07-09T02:52:47.911Z,0.00
2018-07-09T02:53:47.864Z,0.00
2018-07-09T02:54:47.844Z,0.00
2018-07-09T02:55:47.851Z,0.00
2018-07-09T02:56:47.812Z,0.00
2018-07-09T02:57:47.790Z,0.00
2018-07-09T02:58:47.843Z,0.00
2018-07-09T02:59:47.807Z,0.00
2018-07-09T03:00:47.798Z,0.00
2018-07-09T03:01:47.731Z,0.00
2018-07-09T03:02:49.209Z,0.00
2018-07-09T03:03:47.724Z,0.00
2018-07-09T03:04:47.662Z,0.00
2018-07-09T03:05:47.650Z,0.00
2018-07-09T03:06:47.644Z,0.00
2018-07-09T03:07:47.638Z,0.00
2018-07-09T03:08:47.607Z,0.00
2018-07-09T03:09:47.651Z,0.00
2018-07-09T03:10:47.607Z,0.00
2018-07-09T03:11:47.554Z,0.00
2018-07-09T03:12:47.518Z,0.00
2018-07-09T03:13:47.513Z,0.00
2018-07-09T03:14:47.483Z,0.00
2018-07-09T03:15:47.488Z,0.00
2018-07-09T03:16:47.485Z,0.00
2018-07-09T03:17:47.431Z,0.00
2018-07-09T03:18:47.454Z,0.00
2018-07-09T03:19:47.424Z,0.00
2018-07-09T03:20:47.409Z,0.00
2018-07-09T03:21:47.355Z,0.00
2018-07-09T03:22:47.343Z,5.63
2018-07-09T03:23:47.325Z,5.63
2018-07-09T03:24:47.326Z,5.63
2018-07-09T03:25:47.282Z,5.63
2018-07-09T03:26:47.274Z,5.63
2018-07-09T03:27:47.267Z,5.63
2018-07-09T03:28:47.228Z,5.63
2018-07-09T03:29:47.218Z,5.63
2018-07-09T03:30:47.212Z,5.63
2018-07-09T03:31:47.177Z,5.63
2018-07-09T03:32:47.204Z,5.63
2018-07-09T03:33:47.157Z,5.63
2018-07-09T03:34:47.127Z,11.25
2018-07-09T03:35:47.134Z,11.25
2018-07-09T03:36:47.130Z,11.25
2018-07-09T03:37:47.085Z,11.25
2018-07-09T03:38:47.047Z,11.25
2018-07-09T03:39:47.032Z,11.25
2018-07-09T03:40:47.074Z,11.25
2018-07-09T03:41:47.018Z,11.25
2018-07-09T03:42:47.001Z,16.88
2018-07-09T03:43:46.974Z,16.88
2018-07-09T03:44:46.960Z,16.88
2018-07-09T03:45:46.986Z,16.88
2018-07-09T03:46:46.919Z,16.88
2018-07-09T03:47:46.900Z,16.88
2018-07-09T03:48:46.871Z,22.50
2018-07-09T03:49:46.926Z,22.50
2018-07-09T03:50:46.834Z,22.50
2018-07-09T03:51:46.815Z,22.50
2018-07-09T03:52:46.816Z,22.50
2018-07-09T03:53:46.792Z,28.13
2018-07-09T03:54:46.784Z,28.13
2018-07-09T03:55:46.738Z,33.75
2018-07-09T03:56:46.734Z,33.75
2018-07-09T03:57:46.774Z,33.75
2018-07-09T03:58:46.709Z,33.75
2018-07-09T03:59:46.686Z,39.38
2018-07-09T04:00:46.681Z,39.38
2018-07-09T04:01:46.676Z,39.38
2018-07-09T04:02:46.628Z,39.38
2018-07-09T04:03:46.617Z,45.00
2018-07-09T04:04:46.604Z,45.00
2018-07-09T04:05:46.560Z,45.00
2018-07-09T04:06:46.564Z,45.00
2018-07-09T04:07:46.539Z,45.00
2018-07-09T04:08:46.507Z,45.00
2018-07-09T04:09:46.502Z,50.63
2018-07-09T04:10:46.485Z,50.63
2018-07-09T04:11:46.446Z,50.63
2018-07-09T04:12:46.501Z,50.63
2018-07-09T04:13:46.443Z,50.63
2018-07-09T04:14:46.414Z,50.63
2018-07-09T04:15:46.408Z,56.25
2018-07-09T04:16:46.360Z,56.25
2018-07-09T04:17:46.400Z,56.25
2018-07-09T04:18:46.322Z,56.25
2018-07-09T04:19:46.369Z,56.25
2018-07-09T04:20:46.355Z,61.88
2018-07-09T04:21:46.264Z,61.88
2018-07-09T04:22:46.249Z,61.88
2018-07-09T04:30:06.254Z,67.50
2018-07-09T04:34:03.411Z,73.13
2018-07-09T04:35:03.330Z,73.13
2018-07-09T04:36:03.453Z,73.13
2018-07-09T04:37:03.293Z,73.13
2018-07-09T04:38:03.287Z,73.13
2018-07-09T04:39:03.321Z,78.75
2018-07-09T04:40:03.231Z,78.75
2018-07-09T04:41:03.249Z,78.75
2018-07-09T04:42:03.190Z,78.75
2018-07-09T04:43:03.172Z,78.75
2018-07-09T04:44:03.169Z,78.75
2018-07-09T04:45:03.137Z,78.75
2018-07-09T04:46:03.112Z,84.38
2018-07-09T04:47:03.102Z,84.38
2018-07-09T04:48:03.076Z,84.38
2018-07-09T04:49:03.071Z,84.38
2018-07-09T04:50:03.042Z,84.38
2018-07-09T04:51:03.031Z,84.38
2018-07-09T04:52:03.062Z,90.00
2018-07-09T04:53:02.987Z,90.00
2018-07-09T04:54:02.969Z,90.00
2018-07-09T04:55:02.957Z,90.00
2018-07-09T04:56:02.940Z,90.00
2018-07-09T04:57:02.944Z,95.63
2018-07-09T04:58:02.895Z,95.63
2018-07-09T04:59:02.877Z,95.63
2018-07-09T05:00:02.903Z,95.63
2018-07-09T05:01:02.855Z,95.63
2018-07-09T05:02:02.829Z,101.25
2018-07-09T05:03:02.846Z,101.25
2018-07-09T05:04:02.792Z,101.25
2018-07-09T05:05:02.794Z,101.25
2018-07-09T05:06:02.787Z,106.88
2018-07-09T05:07:02.745Z,106.88
2018-07-09T05:08:02.721Z,106.88
2018-07-09T05:09:02.746Z,106.88
2018-07-09T05:10:02.678Z,112.50
2018-07-09T05:11:02.673Z,112.50
2018-07-09T05:12:02.680Z,112.50
2018-07-09T05:13:02.695Z,112.50
2018-07-09T05:14:02.609Z,112.50
2018-07-09T05:15:02.593Z,118.13
2018-07-09T05:17:25.935Z,118.13
2018-07-09T05:18:25.638Z,118.13
2018-07-09T05:19:25.795Z,118.13
2018-07-09T05:20:25.596Z,118.13
2018-07-09T05:21:25.565Z,123.75
2018-07-09T05:22:25.547Z,123.75
2018-07-09T05:23:25.532Z,123.75
2018-07-09T05:24:25.516Z,123.75
2018-07-09T05:25:25.512Z,118.13
2018-07-09T05:26:25.468Z,118.13
2018-07-09T05:27:25.491Z,118.13
2018-07-09T05:28:25.962Z,118.13
2018-07-09T05:29:25.463Z,118.13
2018-07-09T05:30:25.469Z,118.13
2018-07-09T05:31:25.418Z,118.13
2018-07-09T05:32:25.492Z,118.13
2018-07-09T05:33:25.375Z,118.13
2018-07-09T05:34:25.322Z,118.13
2018-07-09T05:36:49.644Z,118.13
2018-07-09T05:37:48.571Z,123.75
2018-07-09T05:39:01.321Z,123.75
2018-07-09T05:40:55.477Z,123.75
2018-07-09T05:41:42.221Z,123.75
2018-07-09T05:44:05.193Z,129.38
2018-07-09T05:46:28.221Z,135.00
2018-07-09T05:47:28.326Z,135.00
2018-07-09T05:49:52.216Z,140.63
2018-07-09T05:50:52.128Z,225.00
2018-07-09T05:51:52.143Z,590.63
2018-07-09T05:52:52.227Z,832.50
2018-07-09T05:55:17.614Z,810.00
2018-07-09T05:56:17.246Z,866.25
2018-07-09T05:58:39.232Z,939.38
2018-07-09T06:01:13.626Z,990.00
2018-07-09T06:03:25.719Z,1046.25
2018-07-09T06:04:25.188Z,1018.13
2018-07-09T06:06:59.413Z,905.63
2018-07-09T06:07:48.203Z,888.75
2018-07-09T06:10:21.407Z,956.25
2018-07-09T06:11:12.256Z,1051.88
2018-07-09T06:13:46.316Z,1220.63
2018-07-09T06:15:57.518Z,1226.25
2018-07-09T06:18:20.595Z,1203.75
2018-07-09T06:19:20.395Z,1288.13
2018-07-09T06:21:43.354Z,1355.63
2018-07-09T06:22:43.340Z,1338.75
2018-07-09T06:23:43.314Z,1389.38
2018-07-09T06:24:43.535Z,1344.38
2018-07-09T06:27:16.422Z,1231.88
2018-07-09T06:28:06.381Z,1327.50
2018-07-09T06:29:06.460Z,1355.63
2018-07-09T06:30:06.357Z,1310.63
2018-07-09T06:31:06.315Z,1215.00
2018-07-09T06:32:06.503Z,1181.25
2018-07-09T06:33:06.527Z,1192.50
2018-07-09T06:34:06.314Z,1254.38
2018-07-09T06:35:06.288Z,1327.50
2018-07-09T06:36:06.240Z,1400.63
2018-07-09T06:37:06.231Z,1445.63
2018-07-09T06:38:06.231Z,1434.38
2018-07-09T06:39:06.371Z,1406.25
2018-07-09T06:41:39.434Z,1558.13
2018-07-09T06:42:29.485Z,1681.88
2018-07-09T06:43:29.279Z,1636.88
2018-07-09T06:46:02.559Z,1569.38
2018-07-09T06:46:52.339Z,1591.88
2018-07-09T06:49:23.062Z,1366.88
2018-07-09T06:51:38.436Z,1496.25
2018-07-09T06:52:38.404Z,1507.50
2018-07-09T06:53:38.426Z,1586.25
2018-07-09T06:54:38.392Z,1636.88
2018-07-09T06:57:13.517Z,1715.63
2018-07-09T06:58:01.472Z,1788.75
2018-07-09T06:59:01.467Z,1681.88
2018-07-09T07:00:01.394Z,1591.88
2018-07-09T07:01:01.453Z,1631.25
2018-07-09T07:02:01.352Z,1715.63
2018-07-09T07:04:34.707Z,1603.13
2018-07-09T07:05:24.472Z,1361.25
2018-07-09T07:06:24.361Z,731.25
2018-07-09T07:07:24.375Z,635.63
2018-07-09T07:08:24.354Z,1411.88
2018-07-09T07:09:24.343Z,630.00
2018-07-09T07:10:24.425Z,669.38
2018-07-09T07:11:24.356Z,613.13
2018-07-09T07:13:57.498Z,787.50
2018-07-09T07:14:47.516Z,1074.38
2018-07-09T07:15:47.508Z,736.88
2018-07-09T07:16:47.370Z,725.63
2018-07-09T07:17:47.329Z,2441.25
2018-07-09T07:18:47.323Z,759.38
2018-07-09T07:19:47.398Z,759.38
2018-07-09T07:20:47.352Z,675.00
2018-07-09T07:21:47.325Z,658.13
2018-07-09T07:24:18.055Z,635.63
2018-07-09T07:25:10.354Z,686.25
2018-07-09T07:27:13.796Z,613.13
2018-07-09T07:28:03.841Z,579.38
2018-07-09T07:29:03.713Z,500.63
2018-07-09T07:30:03.777Z,472.50
2018-07-09T07:31:03.689Z,399.38
2018-07-09T07:32:03.712Z,376.88
2018-07-09T07:33:03.725Z,382.50
2018-07-09T07:34:03.675Z,371.25
2018-07-09T07:35:03.668Z,343.13
2018-07-09T07:37:26.723Z,315.00
2018-07-09T07:39:49.864Z,320.63
2018-07-09T07:42:23.866Z,298.13
2018-07-09T07:43:13.767Z,292.50
2018-07-09T07:44:14.066Z,281.25
2018-07-09T07:45:13.752Z,303.75
2018-07-09T07:46:13.734Z,354.38
2018-07-09T07:47:13.815Z,382.50
2018-07-09T07:48:13.711Z,427.50
2018-07-09T07:49:13.682Z,433.13
2018-07-09T07:50:13.737Z,421.88
2018-07-09T07:51:13.680Z,433.13
2018-07-09T07:52:13.650Z,444.38
2018-07-09T07:53:13.635Z,495.00
2018-07-09T07:54:13.641Z,461.25
2018-07-09T07:55:13.640Z,478.13
2018-07-09T07:57:36.660Z,444.38
2018-07-09T07:58:36.733Z,444.38
2018-07-09T07:59:36.648Z,483.75
2018-07-09T08:00:36.652Z,489.38
2018-07-09T08:02:59.721Z,478.13
2018-07-09T08:03:59.751Z,472.50
2018-07-09T08:04:59.634Z,478.13
2018-07-09T08:06:00.516Z,472.50
2018-07-09T08:08:37.120Z,551.25
2018-07-09T08:09:24.406Z,511.88
2018-07-09T08:10:24.320Z,427.50
2018-07-09T08:11:47.726Z,365.63
2018-07-09T08:13:48.254Z,360.00
2018-07-09T08:14:48.226Z,331.88
2018-07-09T08:15:48.174Z,326.25
2018-07-09T08:16:48.195Z,298.13
2018-07-09T08:17:48.116Z,275.63
2018-07-09T08:18:48.149Z,236.25
2018-07-09T08:19:48.070Z,236.25
2018-07-09T08:20:48.077Z,219.38
2018-07-09T08:21:48.069Z,236.25
2018-07-09T08:22:48.090Z,236.25
2018-07-09T08:23:48.030Z,270.00
2018-07-09T08:24:48.103Z,286.88
2018-07-09T08:27:10.069Z,281.25
2018-07-09T08:28:10.105Z,281.25
2018-07-09T08:30:14.594Z,281.25
2018-07-09T08:31:04.467Z,298.13
2018-07-09T08:32:04.397Z,348.75
2018-07-09T08:33:04.394Z,376.88
2018-07-09T08:34:04.372Z,388.13
2018-07-09T08:35:04.349Z,461.25
2018-07-09T08:36:04.373Z,495.00
2018-07-09T08:37:04.398Z,534.38
2018-07-09T08:38:04.446Z,579.38
2018-07-09T08:39:04.355Z,607.50
2018-07-09T08:40:04.405Z,607.50
2018-07-09T08:42:36.421Z,607.50
2018-07-09T08:43:27.250Z,686.25
2018-07-09T08:44:26.392Z,714.38
2018-07-09T08:46:49.624Z,725.63
2018-07-09T08:47:49.347Z,708.75
2018-07-09T08:48:49.393Z,725.63
2018-07-09T08:49:49.311Z,736.88
2018-07-09T08:50:49.377Z,697.50
2018-07-09T08:51:49.313Z,635.63
2018-07-09T08:52:49.312Z,630.00
2018-07-09T08:53:49.262Z,658.13
2018-07-09T08:54:49.271Z,675.00
2018-07-09T08:57:12.868Z,714.38
2018-07-09T08:58:12.333Z,725.63
2018-07-09T09:00:46.631Z,714.38
2018-07-09T09:02:59.478Z,736.88
2018-07-09T09:05:32.580Z,731.25
2018-07-09T09:06:22.422Z,708.75
2018-07-09T09:07:22.465Z,686.25
2018-07-09T09:08:22.395Z,680.63
2018-07-09T09:09:22.393Z,686.25
2018-07-09T09:10:22.420Z,703.13
2018-07-09T09:11:22.387Z,714.38
2018-07-09T09:12:22.355Z,708.75
2018-07-09T09:13:22.369Z,703.13
2018-07-09T09:14:22.339Z,697.50
2018-07-09T09:15:22.331Z,669.38
2018-07-09T09:16:22.315Z,635.63
2018-07-09T09:17:22.351Z,579.38
2018-07-09T09:18:22.297Z,540.00
2018-07-09T09:19:22.283Z,472.50
2018-07-09T09:20:22.282Z,410.63
2018-07-09T09:21:22.271Z,371.25
2018-07-09T09:22:22.260Z,354.38
2018-07-09T09:23:22.255Z,281.25
2018-07-09T09:24:22.246Z,258.75
2018-07-09T09:25:22.254Z,247.50
2018-07-09T09:26:22.228Z,219.38
2018-07-09T09:27:22.226Z,208.13
2018-07-09T09:28:22.209Z,225.00
2018-07-09T09:29:22.184Z,225.00
2018-07-09T09:31:55.306Z,230.63
2018-07-09T09:32:45.205Z,236.25
2018-07-09T09:35:10.207Z,213.75
2018-07-09T09:36:10.320Z,208.13
2018-07-09T09:37:10.185Z,202.50
2018-07-09T09:38:10.168Z,202.50
2018-07-09T09:39:10.164Z,202.50
2018-07-09T09:40:10.136Z,208.13
2018-07-09T09:41:10.138Z,208.13
2018-07-09T09:42:10.155Z,213.75
2018-07-09T09:43:10.281Z,213.75
2018-07-09T09:44:10.114Z,225.00
2018-07-09T09:45:10.075Z,253.13
2018-07-09T09:46:10.195Z,281.25
2018-07-09T09:47:10.059Z,275.63
2018-07-09T09:48:10.118Z,286.88
2018-07-09T09:49:10.122Z,247.50
2018-07-09T09:50:10.028Z,241.88
2018-07-09T09:51:10.022Z,270.00
2018-07-09T09:52:10.029Z,298.13
2018-07-09T09:53:09.990Z,281.25
2018-07-09T09:54:09.988Z,270.00
2018-07-09T09:55:09.969Z,258.75
2018-07-09T09:56:09.968Z,286.88
2018-07-09T09:57:09.948Z,326.25
2018-07-09T09:58:09.952Z,337.50
2018-07-09T09:59:09.951Z,343.13
2018-07-09T10:00:09.910Z,337.50
2018-07-09T10:01:09.927Z,337.50
2018-07-09T10:02:09.932Z,365.63
2018-07-09T10:03:09.882Z,343.13
2018-07-09T10:04:09.862Z,309.38
2018-07-09T10:05:09.859Z,303.75
2018-07-09T10:06:09.881Z,286.88
2018-07-09T10:07:09.844Z,286.88
2018-07-09T10:08:09.825Z,309.38
2018-07-09T10:09:09.857Z,337.50
2018-07-09T10:10:09.798Z,326.25
2018-07-09T10:11:09.814Z,286.88
2018-07-09T10:12:09.778Z,264.38
2018-07-09T10:13:09.760Z,258.75
2018-07-09T10:14:09.759Z,270.00
2018-07-09T10:15:09.739Z,281.25
2018-07-09T10:16:09.734Z,303.75
2018-07-09T10:17:09.762Z,292.50
2018-07-09T10:18:09.741Z,309.38
2018-07-09T10:19:09.706Z,326.25
2018-07-09T10:20:09.695Z,360.00
2018-07-09T10:21:09.708Z,444.38
2018-07-09T10:22:09.679Z,495.00
2018-07-09T10:23:09.871Z,511.88
2018-07-09T10:24:09.675Z,545.63
2018-07-09T10:25:09.633Z,534.38
2018-07-09T10:26:09.627Z,579.38
2018-07-09T10:27:09.627Z,573.75
2018-07-09T10:28:09.616Z,579.38
2018-07-09T10:29:09.622Z,579.38
2018-07-09T10:30:09.582Z,607.50
2018-07-09T10:31:09.569Z,624.38
2018-07-09T10:32:09.563Z,680.63
2018-07-09T10:33:09.548Z,675.00
2018-07-09T10:34:09.537Z,742.50
2018-07-09T10:35:09.549Z,776.25
2018-07-09T10:36:09.527Z,832.50
2018-07-09T10:37:09.535Z,821.25
2018-07-09T10:38:09.529Z,748.13
2018-07-09T10:39:09.486Z,720.00
2018-07-09T10:40:09.778Z,697.50
2018-07-09T10:41:09.477Z,669.38
2018-07-09T10:42:09.483Z,613.13
2018-07-09T10:43:09.657Z,585.00
2018-07-09T10:44:09.454Z,646.88
2018-07-09T10:45:09.431Z,703.13
2018-07-09T10:46:09.427Z,691.88
2018-07-09T10:47:09.493Z,618.75
2018-07-09T10:48:09.427Z,551.25
2018-07-09T10:49:09.398Z,500.63
2018-07-09T10:50:09.395Z,489.38
2018-07-09T10:51:09.373Z,472.50
2018-07-09T10:52:09.387Z,489.38
2018-07-09T10:53:09.364Z,472.50
2018-07-09T10:54:09.404Z,466.88
2018-07-09T10:55:09.408Z,461.25
2018-07-09T10:56:09.336Z,421.88
2018-07-09T10:57:09.362Z,376.88
2018-07-09T10:58:09.343Z,343.13
2018-07-09T10:59:09.304Z,315.00
2018-07-09T11:00:09.296Z,326.25
2018-07-09T11:01:09.289Z,320.63
2018-07-09T11:02:09.271Z,303.75
2018-07-09T11:03:09.269Z,315.00
2018-07-09T11:04:09.260Z,343.13
2018-07-09T11:05:09.253Z,348.75
2018-07-09T11:06:09.486Z,331.88
2018-07-09T11:07:09.301Z,326.25
2018-07-09T11:08:09.210Z,326.25
2018-07-09T11:09:09.225Z,331.88
2018-07-09T11:10:09.727Z,354.38
2018-07-09T11:12:33.106Z,534.38
2018-07-09T11:13:33.222Z,613.13
2018-07-09T11:14:33.102Z,646.88
2018-07-09T11:15:33.064Z,691.88
2018-07-09T11:16:33.167Z,669.38
2018-07-09T11:17:33.039Z,624.38
2018-07-09T11:18:33.029Z,624.38
2018-07-09T11:19:32.996Z,624.38
2018-07-09T11:20:32.987Z,613.13
2018-07-09T11:21:33.034Z,630.00
2018-07-09T11:24:06.088Z,590.63
2018-07-09T11:24:56.026Z,652.50
2018-07-09T11:25:56.063Z,793.13
2018-07-09T11:26:55.968Z,871.88
2018-07-09T11:27:56.004Z,849.38
2018-07-09T11:30:19.058Z,798.75
2018-07-09T11:32:42.035Z,900.00
2018-07-09T11:33:41.998Z,916.88
2018-07-09T11:34:42.133Z,888.75
2018-07-09T11:35:41.999Z,815.63
2018-07-09T11:36:42.027Z,720.00
2018-07-09T11:37:41.995Z,658.13
2018-07-09T11:38:41.945Z,601.88
2018-07-09T11:39:41.937Z,540.00
2018-07-09T11:40:41.933Z,506.25
2018-07-09T11:41:42.010Z,506.25
2018-07-09T11:42:41.961Z,545.63
2018-07-09T11:43:41.908Z,618.75
2018-07-09T11:44:41.893Z,720.00
2018-07-09T11:45:41.939Z,843.75
2018-07-09T11:48:04.914Z,866.25
2018-07-09T11:50:38.041Z,669.38
2018-07-09T11:51:27.962Z,646.88
2018-07-09T11:52:27.947Z,658.13
2018-07-09T11:53:28.121Z,675.00
2018-07-09T11:54:27.944Z,658.13
2018-07-09T11:55:27.924Z,585.00
2018-07-09T11:56:27.892Z,596.25
2018-07-09T11:57:27.895Z,680.63
2018-07-09T11:59:50.966Z,871.88
2018-07-09T12:00:50.996Z,911.25
2018-07-09T12:01:51.021Z,888.75
2018-07-09T12:02:50.870Z,843.75
2018-07-09T12:03:50.873Z,810.00
2018-07-09T12:04:50.940Z,849.38
2018-07-09T12:07:24.073Z,905.63
2018-07-09T12:08:14.004Z,945.00
2018-07-09T12:09:13.952Z,916.88
2018-07-09T12:10:13.971Z,838.13
2018-07-09T12:11:13.976Z,781.88
2018-07-09T12:13:47.101Z,765.00
2018-07-09T12:16:10.068Z,888.75
2018-07-09T12:17:00.269Z,894.38
2018-07-09T12:19:33.181Z,770.63
2018-07-09T12:20:23.010Z,736.88
2018-07-09T12:22:46.077Z,663.75
2018-07-09T12:23:46.047Z,635.63
2018-07-09T12:24:46.031Z,635.63
2018-07-09T12:25:46.043Z,652.50
2018-07-09T12:26:46.044Z,686.25
2018-07-09T12:27:45.987Z,703.13
2018-07-09T12:28:45.976Z,691.88
2018-07-09T12:29:45.979Z,731.25
2018-07-09T12:30:46.059Z,725.63
2018-07-09T12:31:45.967Z,720.00
2018-07-09T12:34:19.121Z,635.63
2018-07-09T12:35:08.958Z,601.88
2018-07-09T12:36:09.005Z,590.63
2018-07-09T12:38:32.157Z,630.00
2018-07-09T12:39:32.031Z,697.50
2018-07-09T12:40:32.032Z,731.25
2018-07-09T12:41:31.973Z,753.75
2018-07-09T12:42:31.952Z,793.13
2018-07-09T12:43:31.924Z,832.50
2018-07-09T12:44:31.943Z,888.75
2018-07-09T12:45:31.905Z,888.75
2018-07-09T12:46:31.918Z,871.88
2018-07-09T12:48:54.991Z,770.63
2018-07-09T12:49:54.952Z,736.88
2018-07-09T12:52:28.021Z,765.00
2018-07-09T12:54:41.092Z,826.88
2018-07-09T12:55:41.066Z,860.63
2018-07-09T12:56:41.056Z,894.38
2018-07-09T12:57:40.989Z,990.00
2018-07-09T12:58:40.948Z,967.50
2018-07-09T12:59:40.964Z,821.25
2018-07-09T13:00:40.931Z,826.88
2018-07-09T13:01:40.943Z,776.25
2018-07-09T13:02:40.942Z,765.00
2018-07-09T13:03:40.903Z,720.00
2018-07-09T13:04:40.896Z,675.00
2018-07-09T13:07:04.120Z,849.38
2018-07-09T13:08:03.932Z,883.13
2018-07-09T13:10:36.724Z,1068.75
2018-07-09T13:12:50.640Z,753.75
2018-07-09T13:13:50.617Z,669.38
2018-07-09T13:14:50.611Z,663.75
2018-07-09T13:15:50.596Z,781.88
2018-07-09T13:16:50.565Z,1293.75
2018-07-09T13:17:59.206Z,1395.00
2018-07-09T13:19:44.949Z,1490.63
2018-07-09T13:20:44.917Z,810.00
2018-07-09T13:21:45.022Z,607.50
2018-07-09T13:22:44.905Z,618.75
2018-07-09T13:23:44.915Z,663.75
2018-07-09T13:24:44.906Z,731.25
2018-07-09T13:25:44.903Z,815.63
2018-07-09T13:26:44.892Z,1254.38
2018-07-09T13:27:44.884Z,1119.38
2018-07-09T13:28:44.855Z,939.38
2018-07-09T13:29:44.863Z,1096.88
2018-07-09T13:30:44.846Z,950.63
2018-07-09T13:31:44.836Z,871.88
2018-07-09T13:32:44.833Z,798.75
2018-07-09T13:33:44.829Z,810.00
2018-07-09T13:34:44.851Z,832.50
2018-07-09T13:35:44.814Z,815.63
2018-07-09T13:36:44.834Z,776.25
2018-07-09T13:37:44.849Z,787.50
2018-07-09T13:38:44.820Z,720.00
2018-07-09T13:39:44.781Z,579.38
2018-07-09T13:40:44.898Z,511.88
2018-07-09T13:41:44.794Z,478.13
2018-07-09T13:42:44.767Z,466.88
2018-07-09T13:43:44.772Z,433.13
2018-07-09T13:44:44.745Z,416.25
2018-07-09T13:45:53.440Z,444.38
2018-07-09T13:47:39.132Z,545.63
2018-07-09T13:48:39.117Z,607.50
2018-07-09T13:49:39.112Z,607.50
2018-07-09T13:50:39.093Z,663.75
2018-07-09T13:51:39.112Z,641.25
2018-07-09T13:52:39.075Z,495.00
2018-07-09T13:55:02.689Z,405.00
2018-07-09T13:56:02.127Z,416.25
2018-07-09T13:57:02.131Z,450.00
2018-07-09T13:58:03.084Z,478.13
2018-07-09T13:59:02.106Z,495.00
2018-07-09T14:00:02.122Z,495.00
2018-07-09T14:02:35.229Z,455.63
2018-07-09T14:03:25.130Z,483.75
2018-07-09T14:04:25.155Z,517.50
2018-07-09T14:05:25.176Z,540.00
2018-07-09T14:07:49.882Z,495.00
2018-07-09T14:10:12.615Z,354.38
2018-07-09T14:11:12.441Z,320.63
2018-07-09T14:12:12.408Z,298.13
2018-07-09T14:13:12.420Z,303.75
2018-07-09T14:14:12.393Z,303.75
2018-07-09T14:15:12.409Z,309.38
2018-07-09T14:16:12.379Z,326.25
2018-07-09T14:18:45.771Z,388.13
2018-07-09T14:19:35.389Z,388.13
2018-07-09T14:20:35.557Z,399.38
2018-07-09T14:21:44.329Z,393.75
2018-07-09T14:30:16.852Z,163.13
2018-07-09T14:32:13.829Z,135.00
2018-07-09T14:33:13.846Z,135.00
2018-07-09T14:34:13.799Z,129.38
2018-07-09T14:36:46.895Z,118.13